createdAt,value
2022-08-07T00:02:36.229Z,27.40
2022-08-07T00:07:24.620Z,27.26
2022-08-07T00:12:30.342Z,27.22
2022-08-07T00:17:35.903Z,27.19
2022-08-07T00:22:40.446Z,27.14
2022-08-07T00:27:52.684Z,27.11
2022-08-07T00:33:00.744Z,27.06
2022-08-07T00:38:06.562Z,27.02
2022-08-07T00:43:10.548Z,26.99
2022-08-07T00:48:33.065Z,26.95
2022-08-07T00:53:38.647Z,26.92
2022-08-07T00:58:49.980Z,26.88
2022-08-07T01:03:55.865Z,26.86
2022-08-07T01:09:05.106Z,26.82
2022-08-07T01:14:10.757Z,26.76
2022-08-07T01:19:18.852Z,26.74
2022-08-07T01:24:24.730Z,26.69
2022-08-07T01:29:31.519Z,26.67
2022-08-07T01:34:38.091Z,26.62
2022-08-07T01:39:48.802Z,26.58
2022-08-07T01:45:04.754Z,26.56
2022-08-07T01:50:14.167Z,26.52
2022-08-07T01:55:24.105Z,26.48
2022-08-07T02:00:32.523Z,26.46
2022-08-07T02:05:43.107Z,26.42
2022-08-07T02:10:59.277Z,26.38
2022-08-07T02:16:07.499Z,26.35
2022-08-07T02:21:16.104Z,26.33
2022-08-07T02:26:33.918Z,26.29
2022-08-07T02:31:42.395Z,26.27
2022-08-07T02:36:46.287Z,26.22
2022-08-07T02:41:55.176Z,26.20
2022-08-07T02:47:04.243Z,26.16
2022-08-07T02:52:13.110Z,26.13
2022-08-07T02:57:21.621Z,26.08
2022-08-07T03:02:25.301Z,26.05
2022-08-07T03:08:05.053Z,26.02
2022-08-07T03:12:57.709Z,25.99
2022-08-07T03:18:03.262Z,25.96
2022-08-07T03:23:19.272Z,25.92
2022-08-07T03:28:37.639Z,25.83
2022-08-07T03:33:42.486Z,25.68
2022-08-07T03:38:48.865Z,25.56
2022-08-07T03:43:57.133Z,25.49
2022-08-07T03:49:03.511Z,25.41
2022-08-07T03:54:35.363Z,25.35
2022-08-07T03:59:46.675Z,25.24
2022-08-07T04:05:02.888Z,25.16
2022-08-07T04:10:06.580Z,25.10
2022-08-07T04:15:23.854Z,25.04
2022-08-07T04:20:29.334Z,24.97
2022-08-07T04:25:36.047Z,24.91
2022-08-07T04:30:56.719Z,24.86
2022-08-07T04:36:08.755Z,24.83
2022-08-07T04:41:18.291Z,24.79
2022-08-07T04:46:35.903Z,24.72
2022-08-07T04:51:54.627Z,24.68
2022-08-07T04:58:10.148Z,24.64
2022-08-07T05:02:43.574Z,24.62
2022-08-07T05:07:56.996Z,24.63
2022-08-07T05:13:09.871Z,24.62
2022-08-07T05:18:35.221Z,24.59
2022-08-07T05:23:42.854Z,24.58
2022-08-07T05:28:50.544Z,24.57
2022-08-07T05:34:04.462Z,24.57
2022-08-07T05:40:13.513Z,24.55
2022-08-07T05:44:41.570Z,24.54
2022-08-07T05:49:53.143Z,24.54
2022-08-07T05:55:06.760Z,24.53
2022-08-07T06:00:16.061Z,24.53
2022-08-07T06:05:28.772Z,24.53
2022-08-07T06:10:38.387Z,24.54
2022-08-07T06:15:45.578Z,24.54
2022-08-07T06:22:15.555Z,24.56
2022-08-07T06:26:27.299Z,24.57
2022-08-07T06:31:46.714Z,24.60
2022-08-07T06:36:56.460Z,24.63
2022-08-07T06:42:08.539Z,24.63
2022-08-07T06:47:57.795Z,24.64
2022-08-07T06:53:18.778Z,24.66
2022-08-07T06:58:35.375Z,24.67
2022-08-07T07:03:49.265Z,24.69
2022-08-07T07:08:55.062Z,24.71
2022-08-07T07:14:02.223Z,24.68
2022-08-07T07:19:54.472Z,24.65
2022-08-07T07:24:33.277Z,24.25
2022-08-07T07:30:09.103Z,24.25
2022-08-07T07:35:06.327Z,24.28
2022-08-07T07:40:17.412Z,24.28
2022-08-07T07:46:35.747Z,24.26
2022-08-07T07:50:49.477Z,24.26
2022-08-07T07:56:00.853Z,24.22
2022-08-07T08:02:00.983Z,24.27
2022-08-07T08:06:30.329Z,24.28
2022-08-07T08:11:59.951Z,24.24
2022-08-07T08:17:55.760Z,24.38
2022-08-07T08:22:54.388Z,24.34
2022-08-07T08:28:04.527Z,24.55
2022-08-07T08:33:15.127Z,24.51
2022-08-07T08:38:21.571Z,24.63
2022-08-07T08:43:41.979Z,24.69
2022-08-07T08:48:55.400Z,24.68
2022-08-07T08:54:07.818Z,24.83
2022-08-07T08:59:26.635Z,24.84
2022-08-07T09:04:42.096Z,24.77
2022-08-07T09:10:02.596Z,24.89
2022-08-07T09:16:25.154Z,24.79
2022-08-07T09:20:57.707Z,24.84
2022-08-07T09:26:17.594Z,24.78
2022-08-07T09:31:38.581Z,24.98
2022-08-07T09:36:51.194Z,24.99
2022-08-07T09:42:07.688Z,24.95
2022-08-07T09:48:00.282Z,24.96
2022-08-07T09:52:51.789Z,24.95
2022-08-07T09:58:32.313Z,25.03
2022-08-07T10:04:03.705Z,25.05
2022-08-07T10:09:42.679Z,25.08
2022-08-07T10:15:15.410Z,25.08
2022-08-07T10:20:36.539Z,25.02
2022-08-07T10:26:00.429Z,25.19
2022-08-07T10:31:15.637Z,25.04
2022-08-07T10:36:30.134Z,25.20
2022-08-07T10:41:47.152Z,25.37
2022-08-07T10:47:11.594Z,25.52
2022-08-07T10:52:31.801Z,25.64
2022-08-07T10:57:51.597Z,25.75
2022-08-07T11:03:11.326Z,25.89
2022-08-07T11:08:30.301Z,26.00
2022-08-07T11:14:42.685Z,26.09
2022-08-07T11:19:09.871Z,26.18
2022-08-07T11:24:21.738Z,26.25
2022-08-07T11:29:41.947Z,26.31
2022-08-07T11:34:50.094Z,26.41
2022-08-07T11:40:10.822Z,26.48
2022-08-07T11:45:35.683Z,26.54
2022-08-07T11:50:57.122Z,26.61
2022-08-07T11:56:27.650Z,26.65
2022-08-07T12:02:00.733Z,26.71
2022-08-07T12:07:18.855Z,26.76
2022-08-07T12:12:34.411Z,26.78
2022-08-07T12:17:59.397Z,26.83
2022-08-07T12:24:04.825Z,26.88
2022-08-07T12:28:57.795Z,26.94
2022-08-07T12:34:04.193Z,27.01
2022-08-07T12:39:44.257Z,27.02
2022-08-07T12:44:42.996Z,27.11
2022-08-07T12:50:04.483Z,27.14
2022-08-07T12:55:16.601Z,27.19
2022-08-07T13:00:32.719Z,27.27
2022-08-07T13:06:01.906Z,27.34
2022-08-07T13:11:24.810Z,27.37
2022-08-07T13:16:38.332Z,27.37
2022-08-07T13:21:58.253Z,27.46
2022-08-07T13:27:12.743Z,27.45
2022-08-07T13:32:32.262Z,27.52
2022-08-07T13:37:55.389Z,27.56
2022-08-07T13:43:05.505Z,27.59
2022-08-07T13:48:27.615Z,27.60
2022-08-07T13:54:00.625Z,27.67
2022-08-07T13:59:10.406Z,27.68
2022-08-07T14:04:21.328Z,27.76
2022-08-07T14:10:02.693Z,27.74
2022-08-07T14:15:01.504Z,27.79
2022-08-07T14:20:40.630Z,27.85
2022-08-07T14:25:39.407Z,27.86
2022-08-07T14:30:52.060Z,27.90
2022-08-07T14:36:00.602Z,27.89
2022-08-07T14:41:12.169Z,27.95
2022-08-07T15:08:08.791Z,27.97
2022-08-07T15:13:22.441Z,28.01
2022-08-07T15:18:36.004Z,28.05
2022-08-07T15:25:13.966Z,28.21
2022-08-07T15:30:04.835Z,28.13
2022-08-07T15:34:50.425Z,28.17
2022-08-07T15:40:01.112Z,28.15
2022-08-07T15:45:09.456Z,28.20
2022-08-07T15:55:53.654Z,28.26
2022-08-07T16:01:08.737Z,28.25
2022-08-07T16:06:12.815Z,28.27
2022-08-07T16:11:33.790Z,28.32
2022-08-07T16:17:01.306Z,28.36
2022-08-07T16:22:30.184Z,28.40
2022-08-07T16:27:57.229Z,28.39
2022-08-07T16:34:02.320Z,28.46
2022-08-07T16:39:01.087Z,28.48
2022-08-07T16:44:53.705Z,28.54
2022-08-07T16:50:35.506Z,28.54
2022-08-07T16:55:47.431Z,28.57
2022-08-07T17:01:15.858Z,28.56
2022-08-07T17:06:44.585Z,28.61
2022-08-07T17:12:01.799Z,28.68
2022-08-07T17:17:46.238Z,28.62
2022-08-07T17:23:00.623Z,28.61
2022-08-07T17:28:11.871Z,28.58
2022-08-07T17:34:09.143Z,28.65
2022-08-07T17:38:55.894Z,28.62
2022-08-07T17:44:14.720Z,28.70
2022-08-07T17:49:24.482Z,28.70
2022-08-07T17:54:53.299Z,28.68
2022-08-07T18:00:02.305Z,28.71
2022-08-07T18:05:21.981Z,28.70
2022-08-07T18:10:34.329Z,28.71
2022-08-07T18:15:51.824Z,28.73
2022-08-07T18:21:38.167Z,28.75
2022-08-07T18:26:40.688Z,28.73
2022-08-07T18:31:55.562Z,28.67
2022-08-07T18:38:55.285Z,28.66
2022-08-07T18:42:55.934Z,28.70
2022-08-07T18:48:10.240Z,28.62
2022-08-07T18:53:55.477Z,28.57
2022-08-07T18:59:10.640Z,28.62
2022-08-07T19:04:59.439Z,28.62
2022-08-07T19:10:18.600Z,28.63
2022-08-07T19:16:04.274Z,28.62
2022-08-07T19:21:14.984Z,28.57
2022-08-07T19:28:29.144Z,28.52
2022-08-07T19:32:18.565Z,28.55
2022-08-07T19:37:55.612Z,28.58
2022-08-07T19:42:55.948Z,28.58
2022-08-07T19:47:59.503Z,28.54
2022-08-07T19:54:33.034Z,28.61
2022-08-07T19:58:36.821Z,28.71
2022-08-07T20:03:56.964Z,28.53
2022-08-07T20:09:01.892Z,28.44
2022-08-07T20:14:20.603Z,28.51
2022-08-07T20:19:48.307Z,28.43
2022-08-07T20:24:56.942Z,28.28
2022-08-07T20:30:07.550Z,28.21
2022-08-07T20:35:20.579Z,28.35
2022-08-07T20:40:34.594Z,28.36
2022-08-07T20:46:24.694Z,28.39
2022-08-07T20:51:09.616Z,28.31
2022-08-07T20:56:16.066Z,28.31
2022-08-07T21:01:23.214Z,28.29
2022-08-07T21:06:28.426Z,28.27
2022-08-07T21:11:46.172Z,28.30
2022-08-07T21:18:01.294Z,28.20
2022-08-07T21:22:25.551Z,28.10
2022-08-07T21:27:40.025Z,28.28
2022-08-07T21:32:59.178Z,28.24
2022-08-07T21:38:09.044Z,28.16
2022-08-07T21:43:17.774Z,28.36
2022-08-07T21:48:41.476Z,28.39
2022-08-07T21:53:52.633Z,28.44
2022-08-07T21:59:01.962Z,28.49
2022-08-07T22:04:09.897Z,28.48
2022-08-07T22:09:21.538Z,28.51
2022-08-07T22:14:34.803Z,28.50
2022-08-07T22:19:58.180Z,28.48
2022-08-07T22:25:11.050Z,28.46
2022-08-07T22:30:16.754Z,28.41
2022-08-07T22:35:23.334Z,28.38
2022-08-07T22:40:30.781Z,28.35
2022-08-07T22:46:04.705Z,28.29
2022-08-07T22:51:43.823Z,28.19
2022-08-07T22:57:03.861Z,28.10
2022-08-07T23:02:30.674Z,28.03
2022-08-07T23:07:49.111Z,27.97
2022-08-07T23:13:05.656Z,27.92
2022-08-07T23:18:23.343Z,27.85
2022-08-07T23:24:11.393Z,27.79
2022-08-07T23:30:39.497Z,27.71
2022-08-07T23:35:16.719Z,27.65
2022-08-07T23:40:32.286Z,27.60
2022-08-07T23:46:01.499Z,27.55
2022-08-07T23:52:55.926Z,27.50
2022-08-07T23:56:54.006Z,27.45
